Terminal Aerodrome Forecast
Issued by NWS Atlanta, GA

Home | Current Version | Previous Version | Text Only | Print | Product List | Glossary On
Versions: 1 2 3 4 5 6 7 8 9 10 11 12 13 14
661
FTUS42 KFFC 300520
TAFMCN
TAF
KMCN 300520Z 3006/3106 17005KT P6SM FEW060 SCT250
     FM301100 12005KT P6SM SCT012
     FM301500 15007G14KT P6SM BKN040
     FM302200 17010G20KT P6SM VCSH BKN045
     FM310300 16006KT 5SM -SHRA BKN030 PROB30 3104/3106 VRB20G30KT
      3SM TSRA BKN020CB=

USA.gov is the U.S. government's official web portal to all federal, state and local government web resources and services.